• Join FlightAware (Why Join?)
  • Login
  • US Flag 
05:08AM EDT


 

Airport Tracker/Info


-or-


 

Live Flight TrackerFlight Track Log ✈ AAL313 ✈ 29-Jul-2013 ✈ KORD - KIND

Flight Track Log - Related Links

Times and Time Zones

All times are in EDT time to prevent confusion due to time zone crossing. See the AAL313 flight status page for this flight to view local times or setup timezone preferences in your user account.

Time Position Orientation Groundspeed Altitude Reporting Facility
EDT Latitude Longitude Course Direction KTS MPH feet Rate Location/Type
12:22PM 41.9333 -87.9000 166° South 181 208 2,400  Level Chicago TRACON
12:23PM 41.8833 -87.9000 180° South 229 264 4,500 2,460 Climbing Chicago TRACON
12:24PM 41.8078 -87.8875 173° South 280 322 7,200 3,060 Climbing Chicago Center
12:25PM 41.6988 -87.6982 158° South  Level Estimated
12:25PM 41.7297 -87.8456 158° South 304 350 10,900  Level Chicago Center
12:26PM 41.6044 -87.6292 153° Southeast  Level Estimated
12:26PM 41.6550 -87.7833 148° Southeast 314 361 13,900  Level Chicago Center
12:27PM 41.4994 -87.5980 167° South  Level FlightAware Approximate
12:27PM 41.5628 -87.7108 150° Southeast 332 382 15,200  Level Chicago Center
12:28PM 41.4257 -87.5424 166° South  Level Estimated
12:28PM 41.4753 -87.6453 151° Southeast 355 409 16,700  Level Chicago Center
12:30PM 41.3719 -87.5869 157° South 393 452 18,700 1,980 Climbing Chicago Center
12:31PM 41.2647 -87.5233 156° South 415 478 20,900 1,980 Climbing Chicago Center
12:32PM 41.1519 -87.4542 155° Southeast 435 501 22,900 960 Climbing Chicago Center
12:33PM 41.0164 -87.3753 156° South 450 518 23,000  Climbing Chicago Center
12:34PM 40.9031 -87.3069 155° Southeast 451 519 23,000 -300 Level Chicago Center
12:35PM 40.7897 -87.2400 156° South 450 518 22,500 -900 Descending Chicago Center
12:36PM 40.6672 -87.1683 156° South 443 510 21,200 -1,500 Descending Chicago Center
12:37PM 40.5567 -87.1033 156° South 436 502 19,500 -1,740 Descending Chicago Center
12:38PM 40.4489 -87.0417 156° South 428 493 17,700 -2,040 Descending Chicago Center
12:39PM 40.3464 -86.9825 156° South 409 471 15,400 -2,160 Descending Chicago Center
12:40PM 40.2486 -86.9258 156° South 392 451 13,300 -1,200 Descending Chicago Center
12:41PM 40.1428 -86.8478 151° Southeast 382 440 13,000 -360 Descending Chicago Center
12:42PM 40.0739 -86.7469 132° Southeast 377 434 12,600 -1,140 Descending Chicago Center
12:43PM 40.0069 -86.6472 131° Southeast 368 423 10,700 -1,320 Descending Chicago Center
12:44PM 39.9442 -86.5550 132° Southeast 350 403 9,900 -1,080 Descending Chicago Center
12:45PM 39.8869 -86.4728 132° Southeast 318 366 8,500 -1,260 Descending Chicago Center
12:46PM 39.8381 -86.3922 128° Southeast 298 343 7,300 -1,200 Descending Chicago Center
12:47PM 39.8500 -86.3167 78° East 236 272 6,600 -1,260 Descending Indianapolis TRACON
12:47PM 39.8556 -86.2708 81° East 245 282 5,700 -1,320 Descending Indianapolis Center
12:48PM 39.8683 -86.1894 78° East 244 281 4,400 -1,200 Descending Indianapolis Center
12:49PM 39.8172 -86.1842 175° South 223 257 3,300 -1,080 Descending Indianapolis Center
12:51PM 39.7522 -86.2617 223° Southwest 177 204 1,400 -960 Descending Chicago Center
12:52PM 39.7236 -86.2983 225° Southwest 147 169 700 -720 Descending Chicago Center